sensor_id;sensor_type;location;lat;lon;timestamp;P1;durP1;ratioP1;P2;durP2;ratioP2
11008;SDS011;5557;51.670;7.788;2022-12-10T00:01:29;76.40;;;49.00;;
11008;SDS011;5557;51.670;7.788;2022-12-10T00:03:57;76.47;;;50.70;;
11008;SDS011;5557;51.670;7.788;2022-12-10T00:06:26;73.67;;;49.60;;
11008;SDS011;5557;51.670;7.788;2022-12-10T00:08:55;71.13;;;48.23;;
11008;SDS011;5557;51.670;7.788;2022-12-10T00:11:22;67.17;;;43.63;;
11008;SDS011;5557;51.670;7.788;2022-12-10T00:13:50;69.37;;;44.90;;
11008;SDS011;5557;51.670;7.788;2022-12-10T00:16:19;61.67;;;42.13;;
11008;SDS011;5557;51.670;7.788;2022-12-10T00:18:48;68.13;;;44.60;;
11008;SDS011;5557;51.670;7.788;2022-12-10T00:21:18;66.87;;;45.67;;
11008;SDS011;5557;51.670;7.788;2022-12-10T00:23:48;66.13;;;45.53;;
11008;SDS011;5557;51.670;7.788;2022-12-10T00:26:19;64.63;;;43.27;;
11008;SDS011;5557;51.670;7.788;2022-12-10T00:28:54;71.37;;;46.87;;
11008;SDS011;5557;51.670;7.788;2022-12-10T00:31:26;71.50;;;46.73;;
11008;SDS011;5557;51.670;7.788;2022-12-10T00:33:55;69.13;;;47.13;;
11008;SDS011;5557;51.670;7.788;2022-12-10T00:36:28;66.27;;;46.77;;
11008;SDS011;5557;51.670;7.788;2022-12-10T00:39:06;67.93;;;45.87;;
11008;SDS011;5557;51.670;7.788;2022-12-10T00:41:34;70.63;;;47.43;;
11008;SDS011;5557;51.670;7.788;2022-12-10T00:44:01;75.77;;;48.23;;
11008;SDS011;5557;51.670;7.788;2022-12-10T00:46:28;70.80;;;46.97;;
11008;SDS011;5557;51.670;7.788;2022-12-10T00:48:57;67.73;;;46.50;;
11008;SDS011;5557;51.670;7.788;2022-12-10T00:51:25;73.33;;;45.60;;
11008;SDS011;5557;51.670;7.788;2022-12-10T00:53:54;67.93;;;46.67;;
11008;SDS011;5557;51.670;7.788;2022-12-10T00:56:23;69.27;;;47.87;;
11008;SDS011;5557;51.670;7.788;2022-12-10T00:58:54;71.27;;;46.97;;
11008;SDS011;5557;51.670;7.788;2022-12-10T01:01:23;69.07;;;45.60;;
11008;SDS011;5557;51.670;7.788;2022-12-10T01:03:53;71.57;;;46.03;;
11008;SDS011;5557;51.670;7.788;2022-12-10T01:06:27;68.00;;;46.07;;
11008;SDS011;5557;51.670;7.788;2022-12-10T01:09:00;70.53;;;46.27;;
11008;SDS011;5557;51.670;7.788;2022-12-10T01:11:30;66.53;;;45.70;;
11008;SDS011;5557;51.670;7.788;2022-12-10T01:13:58;76.00;;;47.73;;
11008;SDS011;5557;51.670;7.788;2022-12-10T01:16:26;69.60;;;48.33;;
11008;SDS011;5557;51.670;7.788;2022-12-10T01:18:54;70.50;;;46.70;;
11008;SDS011;5557;51.670;7.788;2022-12-10T01:21:23;66.60;;;44.87;;
11008;SDS011;5557;51.670;7.788;2022-12-10T01:23:52;65.70;;;45.20;;
11008;SDS011;5557;51.670;7.788;2022-12-10T01:26:20;62.53;;;44.27;;
11008;SDS011;5557;51.670;7.788;2022-12-10T01:28:53;69.17;;;47.47;;
11008;SDS011;5557;51.670;7.788;2022-12-10T01:31:21;69.27;;;45.33;;
11008;SDS011;5557;51.670;7.788;2022-12-10T01:33:57;65.97;;;42.43;;
11008;SDS011;5557;51.670;7.788;2022-12-10T01:36:27;67.33;;;43.80;;
11008;SDS011;5557;51.670;7.788;2022-12-10T01:38:58;65.57;;;44.77;;
11008;SDS011;5557;51.670;7.788;2022-12-10T01:41:28;64.47;;;45.80;;
11008;SDS011;5557;51.670;7.788;2022-12-10T01:44:00;70.90;;;45.67;;
11008;SDS011;5557;51.670;7.788;2022-12-10T01:46:49;67.60;;;46.10;;
11008;SDS011;5557;51.670;7.788;2022-12-10T01:49:22;66.77;;;44.70;;
11008;SDS011;5557;51.670;7.788;2022-12-10T01:51:54;71.47;;;46.87;;
11008;SDS011;5557;51.670;7.788;2022-12-10T01:54:27;70.70;;;47.93;;
11008;SDS011;5557;51.670;7.788;2022-12-10T01:57:03;68.20;;;45.60;;
11008;SDS011;5557;51.670;7.788;2022-12-10T01:59:32;74.87;;;50.17;;
11008;SDS011;5557;51.670;7.788;2022-12-10T02:02:22;72.87;;;44.37;;
11008;SDS011;5557;51.670;7.788;2022-12-10T02:08:05;66.37;;;45.53;;
11008;SDS011;5557;51.670;7.788;2022-12-10T02:13:45;68.60;;;45.43;;
11008;SDS011;5557;51.670;7.788;2022-12-10T02:16:29;66.27;;;44.83;;
11008;SDS011;5557;51.670;7.788;2022-12-10T02:19:20;64.90;;;43.73;;
11008;SDS011;5557;51.670;7.788;2022-12-10T02:22:14;65.20;;;43.00;;
11008;SDS011;5557;51.670;7.788;2022-12-10T02:24:44;65.77;;;43.70;;
11008;SDS011;5557;51.670;7.788;2022-12-10T02:27:27;65.47;;;46.57;;
11008;SDS011;5557;51.670;7.788;2022-12-10T02:30:02;77.23;;;51.00;;
11008;SDS011;5557;51.670;7.788;2022-12-10T02:32:31;77.23;;;50.87;;
11008;SDS011;5557;51.670;7.788;2022-12-10T02:35:16;93.73;;;49.90;;
11008;SDS011;5557;51.670;7.788;2022-12-10T02:37:50;79.50;;;51.43;;
11008;SDS011;5557;51.670;7.788;2022-12-10T02:40:24;75.00;;;49.07;;
11008;SDS011;5557;51.670;7.788;2022-12-10T02:42:56;74.00;;;46.40;;
11008;SDS011;5557;51.670;7.788;2022-12-10T02:45:24;66.67;;;47.93;;
11008;SDS011;5557;51.670;7.788;2022-12-10T02:47:56;65.00;;;45.20;;
11008;SDS011;5557;51.670;7.788;2022-12-10T02:50:25;69.50;;;49.03;;
11008;SDS011;5557;51.670;7.788;2022-12-10T02:52:52;65.40;;;46.10;;
11008;SDS011;5557;51.670;7.788;2022-12-10T02:55:19;71.00;;;49.33;;
11008;SDS011;5557;51.670;7.788;2022-12-10T02:59:19;72.57;;;49.80;;
11008;SDS011;5557;51.670;7.788;2022-12-10T03:00:48;69.20;;;46.97;;
11008;SDS011;5557;51.670;7.788;2022-12-10T03:06:18;67.17;;;47.07;;
11008;SDS011;5557;51.670;7.788;2022-12-10T03:08:59;66.50;;;46.83;;
11008;SDS011;5557;51.670;7.788;2022-12-10T03:11:32;67.93;;;46.10;;
11008;SDS011;5557;51.670;7.788;2022-12-10T03:14:00;70.67;;;47.50;;
11008;SDS011;5557;51.670;7.788;2022-12-10T03:16:49;73.63;;;44.07;;
11008;SDS011;5557;51.670;7.788;2022-12-10T03:19:21;67.13;;;46.07;;
11008;SDS011;5557;51.670;7.788;2022-12-10T03:21:54;73.17;;;44.90;;
11008;SDS011;5557;51.670;7.788;2022-12-10T03:24:22;68.90;;;45.50;;
11008;SDS011;5557;51.670;7.788;2022-12-10T03:26:51;66.27;;;46.53;;
11008;SDS011;5557;51.670;7.788;2022-12-10T03:29:22;63.03;;;42.13;;
11008;SDS011;5557;51.670;7.788;2022-12-10T03:32:02;61.20;;;43.57;;
11008;SDS011;5557;51.670;7.788;2022-12-10T03:34:30;61.20;;;44.10;;
11008;SDS011;5557;51.670;7.788;2022-12-10T03:36:59;66.23;;;45.80;;
11008;SDS011;5557;51.670;7.788;2022-12-10T03:39:27;66.03;;;45.00;;
11008;SDS011;5557;51.670;7.788;2022-12-10T03:41:55;66.37;;;45.17;;
11008;SDS011;5557;51.670;7.788;2022-12-10T03:44:33;61.57;;;42.97;;
11008;SDS011;5557;51.670;7.788;2022-12-10T03:47:02;61.03;;;43.90;;
11008;SDS011;5557;51.670;7.788;2022-12-10T03:49:30;61.17;;;42.03;;
11008;SDS011;5557;51.670;7.788;2022-12-10T03:51:57;61.90;;;43.10;;
11008;SDS011;5557;51.670;7.788;2022-12-10T03:54:24;61.57;;;41.43;;
11008;SDS011;5557;51.670;7.788;2022-12-10T03:56:51;65.00;;;45.57;;
11008;SDS011;5557;51.670;7.788;2022-12-10T03:59:18;62.67;;;43.40;;
11008;SDS011;5557;51.670;7.788;2022-12-10T04:01:46;62.50;;;43.27;;
11008;SDS011;5557;51.670;7.788;2022-12-10T04:04:13;60.47;;;43.00;;
11008;SDS011;5557;51.670;7.788;2022-12-10T04:06:40;65.00;;;44.77;;
11008;SDS011;5557;51.670;7.788;2022-12-10T04:09:09;60.47;;;43.80;;
11008;SDS011;5557;51.670;7.788;2022-12-10T04:11:37;67.80;;;44.47;;
11008;SDS011;5557;51.670;7.788;2022-12-10T04:14:04;66.40;;;44.37;;
11008;SDS011;5557;51.670;7.788;2022-12-10T04:16:50;64.70;;;43.63;;
11008;SDS011;5557;51.670;7.788;2022-12-10T04:19:17;62.67;;;44.20;;
11008;SDS011;5557;51.670;7.788;2022-12-10T04:21:45;59.43;;;42.30;;
11008;SDS011;5557;51.670;7.788;2022-12-10T04:24:32;59.03;;;41.40;;
11008;SDS011;5557;51.670;7.788;2022-12-10T04:27:23;59.20;;;40.50;;
11008;SDS011;5557;51.670;7.788;2022-12-10T04:29:52;60.77;;;40.67;;
11008;SDS011;5557;51.670;7.788;2022-12-10T04:32:21;63.10;;;44.07;;
11008;SDS011;5557;51.670;7.788;2022-12-10T04:34:49;57.50;;;40.77;;
11008;SDS011;5557;51.670;7.788;2022-12-10T04:37:17;64.10;;;43.30;;
11008;SDS011;5557;51.670;7.788;2022-12-10T04:39:45;56.07;;;39.83;;
11008;SDS011;5557;51.670;7.788;2022-12-10T04:42:12;61.63;;;40.87;;
11008;SDS011;5557;51.670;7.788;2022-12-10T04:44:39;60.20;;;40.57;;
11008;SDS011;5557;51.670;7.788;2022-12-10T04:47:07;58.63;;;40.60;;
11008;SDS011;5557;51.670;7.788;2022-12-10T04:49:35;54.37;;;39.00;;
11008;SDS011;5557;51.670;7.788;2022-12-10T04:52:02;55.43;;;39.43;;
11008;SDS011;5557;51.670;7.788;2022-12-10T04:54:30;55.07;;;39.50;;
11008;SDS011;5557;51.670;7.788;2022-12-10T04:57:04;48.83;;;37.37;;
11008;SDS011;5557;51.670;7.788;2022-12-10T04:59:35;50.67;;;37.40;;
11008;SDS011;5557;51.670;7.788;2022-12-10T05:02:03;51.03;;;36.80;;
11008;SDS011;5557;51.670;7.788;2022-12-10T05:04:31;30.87;;;25.83;;
11008;SDS011;5557;51.670;7.788;2022-12-10T05:06:58;21.87;;;19.67;;
11008;SDS011;5557;51.670;7.788;2022-12-10T05:09:26;18.77;;;16.80;;
11008;SDS011;5557;51.670;7.788;2022-12-10T05:11:53;16.37;;;14.77;;
11008;SDS011;5557;51.670;7.788;2022-12-10T05:14:20;15.97;;;14.40;;
11008;SDS011;5557;51.670;7.788;2022-12-10T05:16:48;18.70;;;16.80;;
11008;SDS011;5557;51.670;7.788;2022-12-10T05:19:17;25.67;;;22.23;;
11008;SDS011;5557;51.670;7.788;2022-12-10T05:21:45;29.03;;;25.03;;
11008;SDS011;5557;51.670;7.788;2022-12-10T05:24:31;31.60;;;26.30;;
11008;SDS011;5557;51.670;7.788;2022-12-10T05:26:58;32.13;;;27.63;;
11008;SDS011;5557;51.670;7.788;2022-12-10T05:29:25;29.30;;;25.63;;
11008;SDS011;5557;51.670;7.788;2022-12-10T05:31:52;27.07;;;24.07;;
11008;SDS011;5557;51.670;7.788;2022-12-10T05:34:25;22.20;;;19.90;;
11008;SDS011;5557;51.670;7.788;2022-12-10T05:36:53;23.37;;;20.73;;
11008;SDS011;5557;51.670;7.788;2022-12-10T05:39:20;23.17;;;20.70;;
11008;SDS011;5557;51.670;7.788;2022-12-10T05:41:47;30.20;;;24.87;;
11008;SDS011;5557;51.670;7.788;2022-12-10T05:44:14;26.60;;;23.70;;
11008;SDS011;5557;51.670;7.788;2022-12-10T05:46:41;25.93;;;23.30;;
11008;SDS011;5557;51.670;7.788;2022-12-10T05:49:08;21.20;;;19.10;;
11008;SDS011;5557;51.670;7.788;2022-12-10T05:51:36;26.63;;;23.30;;
11008;SDS011;5557;51.670;7.788;2022-12-10T05:54:04;23.30;;;20.80;;
11008;SDS011;5557;51.670;7.788;2022-12-10T05:56:34;16.10;;;14.60;;
11008;SDS011;5557;51.670;7.788;2022-12-10T05:59:02;19.77;;;17.90;;
11008;SDS011;5557;51.670;7.788;2022-12-10T06:01:31;17.83;;;16.13;;
11008;SDS011;5557;51.670;7.788;2022-12-10T06:04:00;16.80;;;15.20;;
11008;SDS011;5557;51.670;7.788;2022-12-10T06:06:30;17.47;;;15.77;;
11008;SDS011;5557;51.670;7.788;2022-12-10T06:08:59;15.70;;;14.20;;
11008;SDS011;5557;51.670;7.788;2022-12-10T06:11:27;16.40;;;14.90;;
11008;SDS011;5557;51.670;7.788;2022-12-10T06:13:55;23.90;;;19.77;;
11008;SDS011;5557;51.670;7.788;2022-12-10T06:16:23;20.13;;;18.13;;
11008;SDS011;5557;51.670;7.788;2022-12-10T06:18:52;12.50;;;11.47;;
11008;SDS011;5557;51.670;7.788;2022-12-10T06:21:20;11.00;;;10.30;;
11008;SDS011;5557;51.670;7.788;2022-12-10T06:23:48;10.00;;;9.30;;
11008;SDS011;5557;51.670;7.788;2022-12-10T06:26:19;12.23;;;11.37;;
11008;SDS011;5557;51.670;7.788;2022-12-10T06:28:47;11.53;;;10.63;;
11008;SDS011;5557;51.670;7.788;2022-12-10T06:31:15;19.93;;;17.97;;
11008;SDS011;5557;51.670;7.788;2022-12-10T06:33:46;24.73;;;21.90;;
11008;SDS011;5557;51.670;7.788;2022-12-10T06:36:14;29.70;;;24.33;;
11008;SDS011;5557;51.670;7.788;2022-12-10T06:38:43;28.13;;;24.83;;
11008;SDS011;5557;51.670;7.788;2022-12-10T06:41:11;30.23;;;25.47;;
11008;SDS011;5557;51.670;7.788;2022-12-10T06:43:39;30.07;;;25.90;;
11008;SDS011;5557;51.670;7.788;2022-12-10T06:46:07;31.80;;;26.00;;
11008;SDS011;5557;51.670;7.788;2022-12-10T06:48:36;25.00;;;21.47;;
11008;SDS011;5557;51.670;7.788;2022-12-10T06:51:03;33.80;;;27.77;;
11008;SDS011;5557;51.670;7.788;2022-12-10T06:53:31;32.40;;;26.00;;
11008;SDS011;5557;51.670;7.788;2022-12-10T06:55:59;30.50;;;26.00;;
11008;SDS011;5557;51.670;7.788;2022-12-10T06:58:28;31.47;;;26.23;;
11008;SDS011;5557;51.670;7.788;2022-12-10T07:01:05;32.27;;;27.17;;
11008;SDS011;5557;51.670;7.788;2022-12-10T07:03:33;32.33;;;28.27;;
11008;SDS011;5557;51.670;7.788;2022-12-10T07:06:00;33.37;;;26.17;;
11008;SDS011;5557;51.670;7.788;2022-12-10T07:08:28;25.60;;;22.80;;
11008;SDS011;5557;51.670;7.788;2022-12-10T07:10:57;28.20;;;24.40;;
11008;SDS011;5557;51.670;7.788;2022-12-10T07:13:24;32.83;;;26.93;;
11008;SDS011;5557;51.670;7.788;2022-12-10T07:15:56;32.07;;;24.50;;
11008;SDS011;5557;51.670;7.788;2022-12-10T07:18:23;30.83;;;25.80;;
11008;SDS011;5557;51.670;7.788;2022-12-10T07:20:51;29.23;;;25.93;;
11008;SDS011;5557;51.670;7.788;2022-12-10T07:23:18;29.83;;;26.07;;
11008;SDS011;5557;51.670;7.788;2022-12-10T07:25:45;33.80;;;27.97;;
11008;SDS011;5557;51.670;7.788;2022-12-10T07:28:12;33.60;;;26.60;;
11008;SDS011;5557;51.670;7.788;2022-12-10T07:30:40;30.87;;;26.07;;
11008;SDS011;5557;51.670;7.788;2022-12-10T07:33:07;31.50;;;26.30;;
11008;SDS011;5557;51.670;7.788;2022-12-10T07:35:37;33.57;;;27.90;;
11008;SDS011;5557;51.670;7.788;2022-12-10T07:38:14;34.80;;;28.37;;
11008;SDS011;5557;51.670;7.788;2022-12-10T07:40:41;25.23;;;22.50;;
11008;SDS011;5557;51.670;7.788;2022-12-10T07:43:08;24.47;;;21.97;;
11008;SDS011;5557;51.670;7.788;2022-12-10T07:45:35;23.63;;;21.13;;
11008;SDS011;5557;51.670;7.788;2022-12-10T07:48:02;23.13;;;20.93;;
11008;SDS011;5557;51.670;7.788;2022-12-10T07:50:29;22.50;;;20.27;;
11008;SDS011;5557;51.670;7.788;2022-12-10T07:52:57;24.80;;;22.20;;
11008;SDS011;5557;51.670;7.788;2022-12-10T07:55:24;26.27;;;23.33;;
11008;SDS011;5557;51.670;7.788;2022-12-10T07:57:51;25.20;;;22.57;;
11008;SDS011;5557;51.670;7.788;2022-12-10T08:00:18;27.60;;;23.10;;
11008;SDS011;5557;51.670;7.788;2022-12-10T08:02:45;26.03;;;22.43;;
11008;SDS011;5557;51.670;7.788;2022-12-10T08:05:12;25.53;;;22.83;;
11008;SDS011;5557;51.670;7.788;2022-12-10T08:07:39;25.60;;;22.90;;
11008;SDS011;5557;51.670;7.788;2022-12-10T08:10:07;29.60;;;24.50;;
11008;SDS011;5557;51.670;7.788;2022-12-10T08:12:34;26.00;;;23.30;;
11008;SDS011;5557;51.670;7.788;2022-12-10T08:15:01;26.63;;;21.33;;
11008;SDS011;5557;51.670;7.788;2022-12-10T08:17:29;25.47;;;22.70;;
11008;SDS011;5557;51.670;7.788;2022-12-10T08:19:55;24.10;;;21.60;;
11008;SDS011;5557;51.670;7.788;2022-12-10T08:22:23;24.63;;;21.77;;
11008;SDS011;5557;51.670;7.788;2022-12-10T08:24:50;23.17;;;20.77;;
11008;SDS011;5557;51.670;7.788;2022-12-10T08:27:17;23.27;;;20.87;;
11008;SDS011;5557;51.670;7.788;2022-12-10T08:29:44;24.60;;;21.83;;
11008;SDS011;5557;51.670;7.788;2022-12-10T08:32:11;23.67;;;21.17;;
11008;SDS011;5557;51.670;7.788;2022-12-10T08:34:38;23.37;;;20.60;;
11008;SDS011;5557;51.670;7.788;2022-12-10T08:37:06;22.90;;;20.60;;
11008;SDS011;5557;51.670;7.788;2022-12-10T08:39:39;23.40;;;20.90;;
11008;SDS011;5557;51.670;7.788;2022-12-10T08:42:06;22.50;;;20.20;;
11008;SDS011;5557;51.670;7.788;2022-12-10T08:44:33;21.97;;;19.83;;
11008;SDS011;5557;51.670;7.788;2022-12-10T08:47:00;21.90;;;19.73;;
11008;SDS011;5557;51.670;7.788;2022-12-10T08:49:27;23.80;;;21.30;;
11008;SDS011;5557;51.670;7.788;2022-12-10T08:51:54;22.47;;;20.17;;
11008;SDS011;5557;51.670;7.788;2022-12-10T08:54:21;23.50;;;21.10;;
11008;SDS011;5557;51.670;7.788;2022-12-10T08:56:48;22.33;;;19.97;;
11008;SDS011;5557;51.670;7.788;2022-12-10T08:59:16;22.60;;;20.30;;
11008;SDS011;5557;51.670;7.788;2022-12-10T09:01:43;23.50;;;21.03;;
11008;SDS011;5557;51.670;7.788;2022-12-10T09:04:10;24.10;;;19.90;;
11008;SDS011;5557;51.670;7.788;2022-12-10T09:06:38;21.63;;;19.40;;
11008;SDS011;5557;51.670;7.788;2022-12-10T09:09:05;20.63;;;18.43;;
11008;SDS011;5557;51.670;7.788;2022-12-10T09:11:33;21.87;;;19.70;;
11008;SDS011;5557;51.670;7.788;2022-12-10T09:14:01;21.90;;;19.60;;
11008;SDS011;5557;51.670;7.788;2022-12-10T09:16:29;20.87;;;18.83;;
11008;SDS011;5557;51.670;7.788;2022-12-10T09:18:58;22.30;;;19.90;;
11008;SDS011;5557;51.670;7.788;2022-12-10T09:21:26;21.60;;;19.40;;
11008;SDS011;5557;51.670;7.788;2022-12-10T09:23:53;22.13;;;19.90;;
11008;SDS011;5557;51.670;7.788;2022-12-10T09:26:20;20.30;;;18.40;;
11008;SDS011;5557;51.670;7.788;2022-12-10T09:28:48;19.97;;;18.07;;
11008;SDS011;5557;51.670;7.788;2022-12-10T09:31:15;21.83;;;19.70;;
11008;SDS011;5557;51.670;7.788;2022-12-10T09:33:47;19.97;;;18.07;;
11008;SDS011;5557;51.670;7.788;2022-12-10T09:36:15;20.13;;;18.03;;
11008;SDS011;5557;51.670;7.788;2022-12-10T09:38:43;21.33;;;19.03;;
11008;SDS011;5557;51.670;7.788;2022-12-10T09:47:36;20.30;;;18.37;;
11008;SDS011;5557;51.670;7.788;2022-12-10T09:50:35;20.97;;;18.77;;
11008;SDS011;5557;51.670;7.788;2022-12-10T09:53:31;18.30;;;16.47;;
11008;SDS011;5557;51.670;7.788;2022-12-10T09:56:00;20.67;;;18.50;;
11008;SDS011;5557;51.670;7.788;2022-12-10T09:58:28;20.50;;;18.50;;
11008;SDS011;5557;51.670;7.788;2022-12-10T10:00:57;18.33;;;16.63;;
11008;SDS011;5557;51.670;7.788;2022-12-10T10:03:31;18.03;;;16.30;;
11008;SDS011;5557;51.670;7.788;2022-12-10T10:06:01;17.77;;;15.97;;
11008;SDS011;5557;51.670;7.788;2022-12-10T10:08:38;18.40;;;16.70;;
11008;SDS011;5557;51.670;7.788;2022-12-10T10:11:11;18.30;;;16.50;;
11008;SDS011;5557;51.670;7.788;2022-12-10T10:13:49;18.43;;;16.73;;
11008;SDS011;5557;51.670;7.788;2022-12-10T10:16:47;16.27;;;14.87;;
11008;SDS011;5557;51.670;7.788;2022-12-10T10:19:21;17.90;;;16.27;;
11008;SDS011;5557;51.670;7.788;2022-12-10T10:21:53;17.23;;;15.73;;
11008;SDS011;5557;51.670;7.788;2022-12-10T10:24:25;17.00;;;15.50;;
11008;SDS011;5557;51.670;7.788;2022-12-10T10:27:13;16.73;;;15.30;;
11008;SDS011;5557;51.670;7.788;2022-12-10T10:29:48;16.63;;;15.10;;
11008;SDS011;5557;51.670;7.788;2022-12-10T10:35:29;18.00;;;16.20;;
11008;SDS011;5557;51.670;7.788;2022-12-10T10:38:04;19.17;;;17.27;;
11008;SDS011;5557;51.670;7.788;2022-12-10T10:40:43;17.70;;;16.00;;
11008;SDS011;5557;51.670;7.788;2022-12-10T10:43:16;17.50;;;15.80;;
11008;SDS011;5557;51.670;7.788;2022-12-10T10:45:51;16.30;;;14.90;;
11008;SDS011;5557;51.670;7.788;2022-12-10T10:48:28;18.53;;;16.77;;
11008;SDS011;5557;51.670;7.788;2022-12-10T10:51:05;18.13;;;16.43;;
11008;SDS011;5557;51.670;7.788;2022-12-10T10:53:41;19.10;;;17.30;;
11008;SDS011;5557;51.670;7.788;2022-12-10T10:56:21;21.77;;;19.53;;
11008;SDS011;5557;51.670;7.788;2022-12-10T11:05:06;16.13;;;14.60;;
11008;SDS011;5557;51.670;7.788;2022-12-10T11:08:04;18.57;;;16.67;;
11008;SDS011;5557;51.670;7.788;2022-12-10T11:10:46;17.80;;;15.90;;
11008;SDS011;5557;51.670;7.788;2022-12-10T11:13:19;18.27;;;16.30;;
11008;SDS011;5557;51.670;7.788;2022-12-10T11:15:55;19.00;;;17.07;;
11008;SDS011;5557;51.670;7.788;2022-12-10T11:18:38;20.17;;;18.07;;
11008;SDS011;5557;51.670;7.788;2022-12-10T11:21:17;20.53;;;17.63;;
11008;SDS011;5557;51.670;7.788;2022-12-10T11:23:49;19.53;;;17.40;;
11008;SDS011;5557;51.670;7.788;2022-12-10T11:29:53;20.63;;;18.70;;
11008;SDS011;5557;51.670;7.788;2022-12-10T11:32:53;21.03;;;18.77;;
11008;SDS011;5557;51.670;7.788;2022-12-10T11:42:08;18.87;;;16.87;;
11008;SDS011;5557;51.670;7.788;2022-12-10T11:45:22;21.80;;;18.40;;
11008;SDS011;5557;51.670;7.788;2022-12-10T11:47:57;21.27;;;19.03;;
11008;SDS011;5557;51.670;7.788;2022-12-10T11:50:56;21.40;;;18.80;;
11008;SDS011;5557;51.670;7.788;2022-12-10T11:53:35;22.23;;;19.80;;
11008;SDS011;5557;51.670;7.788;2022-12-10T11:59:53;22.00;;;19.83;;
11008;SDS011;5557;51.670;7.788;2022-12-10T12:05:52;20.77;;;18.60;;
11008;SDS011;5557;51.670;7.788;2022-12-10T12:14:30;21.47;;;18.40;;
11008;SDS011;5557;51.670;7.788;2022-12-10T12:17:23;21.23;;;19.03;;
11008;SDS011;5557;51.670;7.788;2022-12-10T12:25:47;21.77;;;19.60;;
11008;SDS011;5557;51.670;7.788;2022-12-10T12:28:52;21.17;;;19.07;;
11008;SDS011;5557;51.670;7.788;2022-12-10T12:31:18;20.60;;;18.43;;
11008;SDS011;5557;51.670;7.788;2022-12-10T12:33:50;20.70;;;18.60;;
11008;SDS011;5557;51.670;7.788;2022-12-10T12:36:26;22.63;;;20.27;;
11008;SDS011;5557;51.670;7.788;2022-12-10T12:39:41;20.27;;;18.13;;
11008;SDS011;5557;51.670;7.788;2022-12-10T12:42:14;25.90;;;19.10;;
11008;SDS011;5557;51.670;7.788;2022-12-10T12:45:31;20.83;;;18.77;;
11008;SDS011;5557;51.670;7.788;2022-12-10T12:51:30;20.93;;;18.73;;
11008;SDS011;5557;51.670;7.788;2022-12-10T12:54:02;20.47;;;18.43;;
11008;SDS011;5557;51.670;7.788;2022-12-10T13:06:39;23.23;;;20.00;;
11008;SDS011;5557;51.670;7.788;2022-12-10T13:09:18;20.13;;;18.13;;
11008;SDS011;5557;51.670;7.788;2022-12-10T13:15:32;21.57;;;19.13;;
11008;SDS011;5557;51.670;7.788;2022-12-10T13:23:54;21.20;;;19.00;;
11008;SDS011;5557;51.670;7.788;2022-12-10T13:26:40;20.30;;;18.10;;
11008;SDS011;5557;51.670;7.788;2022-12-10T13:29:28;25.03;;;19.83;;
11008;SDS011;5557;51.670;7.788;2022-12-10T13:32:13;20.63;;;18.47;;
11008;SDS011;5557;51.670;7.788;2022-12-10T13:35:26;19.43;;;17.43;;
11008;SDS011;5557;51.670;7.788;2022-12-10T13:37:57;19.53;;;17.57;;
11008;SDS011;5557;51.670;7.788;2022-12-10T13:46:28;20.03;;;17.93;;
11008;SDS011;5557;51.670;7.788;2022-12-10T13:49:01;21.87;;;19.53;;
11008;SDS011;5557;51.670;7.788;2022-12-10T14:01:02;22.50;;;20.07;;
11008;SDS011;5557;51.670;7.788;2022-12-10T14:03:44;24.00;;;21.37;;
11008;SDS011;5557;51.670;7.788;2022-12-10T14:06:14;25.20;;;21.67;;
11008;SDS011;5557;51.670;7.788;2022-12-10T14:11:31;23.43;;;20.60;;
11008;SDS011;5557;51.670;7.788;2022-12-10T14:14:04;26.50;;;20.40;;
11008;SDS011;5557;51.670;7.788;2022-12-10T14:16:36;22.47;;;19.50;;
11008;SDS011;5557;51.670;7.788;2022-12-10T14:19:06;22.87;;;20.43;;
11008;SDS011;5557;51.670;7.788;2022-12-10T14:21:39;28.70;;;22.87;;
11008;SDS011;5557;51.670;7.788;2022-12-10T14:24:30;24.90;;;22.20;;
11008;SDS011;5557;51.670;7.788;2022-12-10T14:27:03;28.97;;;22.60;;
11008;SDS011;5557;51.670;7.788;2022-12-10T14:30:05;30.80;;;24.67;;
11008;SDS011;5557;51.670;7.788;2022-12-10T14:32:43;24.33;;;21.70;;
11008;SDS011;5557;51.670;7.788;2022-12-10T14:35:15;24.33;;;21.70;;
11008;SDS011;5557;51.670;7.788;2022-12-10T14:37:51;26.53;;;23.30;;
11008;SDS011;5557;51.670;7.788;2022-12-10T14:40:28;25.60;;;22.80;;
11008;SDS011;5557;51.670;7.788;2022-12-10T14:43:14;24.17;;;21.67;;
11008;SDS011;5557;51.670;7.788;2022-12-10T14:45:52;25.73;;;22.37;;
11008;SDS011;5557;51.670;7.788;2022-12-10T14:48:22;23.97;;;21.07;;
11008;SDS011;5557;51.670;7.788;2022-12-10T14:50:50;25.83;;;21.87;;
11008;SDS011;5557;51.670;7.788;2022-12-10T14:53:19;27.17;;;23.67;;
11008;SDS011;5557;51.670;7.788;2022-12-10T14:55:58;24.33;;;21.70;;
11008;SDS011;5557;51.670;7.788;2022-12-10T14:58:47;30.13;;;24.73;;
11008;SDS011;5557;51.670;7.788;2022-12-10T15:04:03;27.00;;;24.10;;
11008;SDS011;5557;51.670;7.788;2022-12-10T15:06:33;30.27;;;24.20;;
11008;SDS011;5557;51.670;7.788;2022-12-10T15:09:02;29.60;;;24.17;;
11008;SDS011;5557;51.670;7.788;2022-12-10T15:11:32;29.37;;;25.70;;
11008;SDS011;5557;51.670;7.788;2022-12-10T15:13:59;33.13;;;26.60;;
11008;SDS011;5557;51.670;7.788;2022-12-10T15:16:37;34.53;;;27.23;;
11008;SDS011;5557;51.670;7.788;2022-12-10T15:19:08;32.10;;;27.20;;
11008;SDS011;5557;51.670;7.788;2022-12-10T15:22:11;30.50;;;27.03;;
11008;SDS011;5557;51.670;7.788;2022-12-10T15:24:48;35.63;;;27.90;;
11008;SDS011;5557;51.670;7.788;2022-12-10T15:27:16;30.73;;;26.13;;
11008;SDS011;5557;51.670;7.788;2022-12-10T15:29:44;32.63;;;26.33;;
11008;SDS011;5557;51.670;7.788;2022-12-10T15:32:13;30.77;;;25.87;;
11008;SDS011;5557;51.670;7.788;2022-12-10T15:34:47;31.07;;;25.33;;
11008;SDS011;5557;51.670;7.788;2022-12-10T15:37:23;32.83;;;26.43;;
11008;SDS011;5557;51.670;7.788;2022-12-10T15:39:58;34.67;;;27.13;;
11008;SDS011;5557;51.670;7.788;2022-12-10T15:42:36;34.17;;;27.23;;
11008;SDS011;5557;51.670;7.788;2022-12-10T15:45:27;33.67;;;27.10;;
11008;SDS011;5557;51.670;7.788;2022-12-10T15:48:07;36.77;;;27.70;;
11008;SDS011;5557;51.670;7.788;2022-12-10T15:50:38;33.10;;;27.13;;
11008;SDS011;5557;51.670;7.788;2022-12-10T15:53:10;34.70;;;28.57;;
11008;SDS011;5557;51.670;7.788;2022-12-10T15:55:39;37.27;;;29.00;;
11008;SDS011;5557;51.670;7.788;2022-12-10T15:58:10;39.23;;;28.70;;
11008;SDS011;5557;51.670;7.788;2022-12-10T16:00:39;35.80;;;27.60;;
11008;SDS011;5557;51.670;7.788;2022-12-10T16:03:11;32.13;;;25.60;;
11008;SDS011;5557;51.670;7.788;2022-12-10T16:05:41;36.47;;;27.33;;
11008;SDS011;5557;51.670;7.788;2022-12-10T16:08:20;30.70;;;27.40;;
11008;SDS011;5557;51.670;7.788;2022-12-10T16:10:52;41.10;;;29.60;;
11008;SDS011;5557;51.670;7.788;2022-12-10T16:13:23;35.93;;;29.13;;
11008;SDS011;5557;51.670;7.788;2022-12-10T16:16:07;33.43;;;27.90;;
11008;SDS011;5557;51.670;7.788;2022-12-10T16:18:36;35.33;;;27.67;;
11008;SDS011;5557;51.670;7.788;2022-12-10T16:21:04;36.83;;;29.23;;
11008;SDS011;5557;51.670;7.788;2022-12-10T16:23:32;35.33;;;29.67;;
11008;SDS011;5557;51.670;7.788;2022-12-10T16:26:01;36.30;;;27.93;;
11008;SDS011;5557;51.670;7.788;2022-12-10T16:28:31;36.07;;;28.77;;
11008;SDS011;5557;51.670;7.788;2022-12-10T16:31:03;40.70;;;30.60;;
11008;SDS011;5557;51.670;7.788;2022-12-10T16:33:31;36.63;;;29.97;;
11008;SDS011;5557;51.670;7.788;2022-12-10T16:35:58;40.30;;;30.20;;
11008;SDS011;5557;51.670;7.788;2022-12-10T16:38:28;41.53;;;28.67;;
11008;SDS011;5557;51.670;7.788;2022-12-10T16:40:55;34.60;;;28.77;;
11008;SDS011;5557;51.670;7.788;2022-12-10T16:43:24;36.67;;;28.50;;